sensor_id;sensor_type;location;lat;lon;timestamp;temperature;humidity
23251;DHT22;11794;49.730;10.088;2023-11-22T00:00:36;3.80;99.90
23251;DHT22;11794;49.730;10.088;2023-11-22T00:03:02;3.70;99.90
23251;DHT22;11794;49.730;10.088;2023-11-22T00:05:27;3.70;99.90
23251;DHT22;11794;49.730;10.088;2023-11-22T00:07:53;3.70;99.90
23251;DHT22;11794;49.730;10.088;2023-11-22T00:10:18;3.70;99.90
23251;DHT22;11794;49.730;10.088;2023-11-22T00:12:44;3.70;99.90
23251;DHT22;11794;49.730;10.088;2023-11-22T00:15:09;3.60;99.90
23251;DHT22;11794;49.730;10.088;2023-11-22T00:17:37;3.60;99.90
23251;DHT22;11794;49.730;10.088;2023-11-22T00:20:02;3.60;99.90
23251;DHT22;11794;49.730;10.088;2023-11-22T00:22:33;3.70;99.90
23251;DHT22;11794;49.730;10.088;2023-11-22T00:24:59;3.60;99.90
23251;DHT22;11794;49.730;10.088;2023-11-22T00:27:29;3.60;99.90
23251;DHT22;11794;49.730;10.088;2023-11-22T00:29:57;3.60;99.90
23251;DHT22;11794;49.730;10.088;2023-11-22T00:32:22;3.60;99.90
23251;DHT22;11794;49.730;10.088;2023-11-22T00:34:48;3.60;99.90
23251;DHT22;11794;49.730;10.088;2023-11-22T00:37:14;3.60;99.90
23251;DHT22;11794;49.730;10.088;2023-11-22T00:39:39;3.70;99.90
23251;DHT22;11794;49.730;10.088;2023-11-22T00:42:05;3.60;99.90
23251;DHT22;11794;49.730;10.088;2023-11-22T00:44:31;3.70;99.90
23251;DHT22;11794;49.730;10.088;2023-11-22T00:46:57;3.70;99.90
23251;DHT22;11794;49.730;10.088;2023-11-22T00:49:23;3.60;99.90
23251;DHT22;11794;49.730;10.088;2023-11-22T00:51:49;3.50;99.90
23251;DHT22;11794;49.730;10.088;2023-11-22T00:54:16;3.50;99.90
23251;DHT22;11794;49.730;10.088;2023-11-22T00:56:41;3.40;99.90
23251;DHT22;11794;49.730;10.088;2023-11-22T00:59:07;3.40;99.90
23251;DHT22;11794;49.730;10.088;2023-11-22T01:01:32;3.50;99.90
23251;DHT22;11794;49.730;10.088;2023-11-22T01:03:58;3.50;99.90
23251;DHT22;11794;49.730;10.088;2023-11-22T01:06:24;3.50;99.90
23251;DHT22;11794;49.730;10.088;2023-11-22T01:08:50;3.60;99.90
23251;DHT22;11794;49.730;10.088;2023-11-22T01:11:16;3.60;99.90
23251;DHT22;11794;49.730;10.088;2023-11-22T01:13:42;3.60;99.90
23251;DHT22;11794;49.730;10.088;2023-11-22T01:16:09;3.60;99.90
23251;DHT22;11794;49.730;10.088;2023-11-22T01:18:35;3.60;99.90
23251;DHT22;11794;49.730;10.088;2023-11-22T01:21:01;3.60;99.90
23251;DHT22;11794;49.730;10.088;2023-11-22T01:23:26;3.70;99.90
23251;DHT22;11794;49.730;10.088;2023-11-22T01:25:53;3.70;99.90
23251;DHT22;11794;49.730;10.088;2023-11-22T01:28:19;3.80;99.90
23251;DHT22;11794;49.730;10.088;2023-11-22T01:30:45;3.80;99.90
23251;DHT22;11794;49.730;10.088;2023-11-22T01:33:14;3.90;99.90
23251;DHT22;11794;49.730;10.088;2023-11-22T01:35:40;3.80;99.90
23251;DHT22;11794;49.730;10.088;2023-11-22T01:38:05;3.80;99.90
23251;DHT22;11794;49.730;10.088;2023-11-22T01:40:31;3.80;99.90
23251;DHT22;11794;49.730;10.088;2023-11-22T01:43:00;3.80;99.90
23251;DHT22;11794;49.730;10.088;2023-11-22T01:45:28;3.70;99.90
23251;DHT22;11794;49.730;10.088;2023-11-22T01:47:54;3.80;99.90
23251;DHT22;11794;49.730;10.088;2023-11-22T01:50:20;3.70;99.90
23251;DHT22;11794;49.730;10.088;2023-11-22T01:52:47;3.70;99.90
23251;DHT22;11794;49.730;10.088;2023-11-22T01:55:13;3.70;99.90
23251;DHT22;11794;49.730;10.088;2023-11-22T01:57:41;3.80;99.90
23251;DHT22;11794;49.730;10.088;2023-11-22T02:00:07;3.70;99.90
23251;DHT22;11794;49.730;10.088;2023-11-22T02:02:36;3.70;99.90
23251;DHT22;11794;49.730;10.088;2023-11-22T02:05:01;3.70;99.90
23251;DHT22;11794;49.730;10.088;2023-11-22T02:07:27;3.70;99.90
23251;DHT22;11794;49.730;10.088;2023-11-22T02:09:53;3.70;99.90
23251;DHT22;11794;49.730;10.088;2023-11-22T02:12:19;3.70;99.90
23251;DHT22;11794;49.730;10.088;2023-11-22T02:14:45;3.70;99.90
23251;DHT22;11794;49.730;10.088;2023-11-22T02:17:12;3.70;99.90
23251;DHT22;11794;49.730;10.088;2023-11-22T02:19:37;3.70;99.90
23251;DHT22;11794;49.730;10.088;2023-11-22T02:22:03;3.70;99.90
23251;DHT22;11794;49.730;10.088;2023-11-22T02:24:28;3.70;99.90
23251;DHT22;11794;49.730;10.088;2023-11-22T02:26:54;3.60;99.90
23251;DHT22;11794;49.730;10.088;2023-11-22T02:29:19;3.60;99.90
23251;DHT22;11794;49.730;10.088;2023-11-22T02:31:45;3.60;99.90
23251;DHT22;11794;49.730;10.088;2023-11-22T02:34:11;3.60;99.90
23251;DHT22;11794;49.730;10.088;2023-11-22T02:36:36;3.60;99.90
23251;DHT22;11794;49.730;10.088;2023-11-22T02:39:02;3.60;99.90
23251;DHT22;11794;49.730;10.088;2023-11-22T02:41:28;3.60;99.90
23251;DHT22;11794;49.730;10.088;2023-11-22T02:43:56;3.50;99.90
23251;DHT22;11794;49.730;10.088;2023-11-22T02:46:22;3.50;99.90
23251;DHT22;11794;49.730;10.088;2023-11-22T02:48:49;3.50;99.90
23251;DHT22;11794;49.730;10.088;2023-11-22T02:51:14;3.40;99.90
23251;DHT22;11794;49.730;10.088;2023-11-22T02:53:41;3.40;99.90
23251;DHT22;11794;49.730;10.088;2023-11-22T02:56:11;3.40;99.90
23251;DHT22;11794;49.730;10.088;2023-11-22T02:58:37;3.30;99.90
23251;DHT22;11794;49.730;10.088;2023-11-22T03:01:02;3.30;99.90
23251;DHT22;11794;49.730;10.088;2023-11-22T03:03:28;3.20;99.90
23251;DHT22;11794;49.730;10.088;2023-11-22T03:05:54;3.20;99.90
23251;DHT22;11794;49.730;10.088;2023-11-22T03:08:20;3.20;99.90
23251;DHT22;11794;49.730;10.088;2023-11-22T03:10:45;3.10;99.90
23251;DHT22;11794;49.730;10.088;2023-11-22T03:13:11;3.10;99.90
23251;DHT22;11794;49.730;10.088;2023-11-22T03:15:37;3.00;99.90
23251;DHT22;11794;49.730;10.088;2023-11-22T03:18:02;3.00;99.90
23251;DHT22;11794;49.730;10.088;2023-11-22T03:20:29;2.90;99.90
23251;DHT22;11794;49.730;10.088;2023-11-22T03:22:58;2.70;99.90
23251;DHT22;11794;49.730;10.088;2023-11-22T03:25:23;2.60;99.90
23251;DHT22;11794;49.730;10.088;2023-11-22T03:27:49;2.60;99.90
23251;DHT22;11794;49.730;10.088;2023-11-22T03:30:14;2.50;99.90
23251;DHT22;11794;49.730;10.088;2023-11-22T03:32:43;2.40;99.90
23251;DHT22;11794;49.730;10.088;2023-11-22T03:35:09;2.40;99.90
23251;DHT22;11794;49.730;10.088;2023-11-22T03:37:35;2.40;99.90
23251;DHT22;11794;49.730;10.088;2023-11-22T03:40:01;2.40;99.90
23251;DHT22;11794;49.730;10.088;2023-11-22T03:42:28;2.30;99.90
23251;DHT22;11794;49.730;10.088;2023-11-22T03:44:53;2.20;99.90
23251;DHT22;11794;49.730;10.088;2023-11-22T03:47:19;2.20;99.90
23251;DHT22;11794;49.730;10.088;2023-11-22T03:49:45;2.20;99.90
23251;DHT22;11794;49.730;10.088;2023-11-22T03:52:11;2.10;99.90
23251;DHT22;11794;49.730;10.088;2023-11-22T03:54:37;2.10;99.90
23251;DHT22;11794;49.730;10.088;2023-11-22T03:57:03;2.10;99.90
23251;DHT22;11794;49.730;10.088;2023-11-22T03:59:28;2.00;99.90
23251;DHT22;11794;49.730;10.088;2023-11-22T04:01:54;2.00;99.90
23251;DHT22;11794;49.730;10.088;2023-11-22T04:04:20;1.90;99.90
23251;DHT22;11794;49.730;10.088;2023-11-22T04:06:45;1.90;99.90
23251;DHT22;11794;49.730;10.088;2023-11-22T04:09:11;1.90;99.90
23251;DHT22;11794;49.730;10.088;2023-11-22T04:11:42;1.80;99.90
23251;DHT22;11794;49.730;10.088;2023-11-22T04:14:07;1.80;99.90
23251;DHT22;11794;49.730;10.088;2023-11-22T04:16:33;1.80;99.90
23251;DHT22;11794;49.730;10.088;2023-11-22T04:18:59;1.80;99.90
23251;DHT22;11794;49.730;10.088;2023-11-22T04:21:24;1.70;99.90
23251;DHT22;11794;49.730;10.088;2023-11-22T04:23:50;1.60;99.90
23251;DHT22;11794;49.730;10.088;2023-11-22T04:26:15;1.60;99.90
23251;DHT22;11794;49.730;10.088;2023-11-22T04:28:41;1.50;99.90
23251;DHT22;11794;49.730;10.088;2023-11-22T04:31:07;1.50;99.90
23251;DHT22;11794;49.730;10.088;2023-11-22T04:33:34;1.50;99.90
23251;DHT22;11794;49.730;10.088;2023-11-22T04:35:59;1.50;99.90
23251;DHT22;11794;49.730;10.088;2023-11-22T04:38:26;1.50;99.90
23251;DHT22;11794;49.730;10.088;2023-11-22T04:40:51;1.50;99.90
23251;DHT22;11794;49.730;10.088;2023-11-22T04:43:17;1.40;99.90
23251;DHT22;11794;49.730;10.088;2023-11-22T04:45:42;1.40;99.90
23251;DHT22;11794;49.730;10.088;2023-11-22T04:48:08;1.50;99.90
23251;DHT22;11794;49.730;10.088;2023-11-22T04:50:35;1.50;99.90
23251;DHT22;11794;49.730;10.088;2023-11-22T04:53:01;1.40;99.90
23251;DHT22;11794;49.730;10.088;2023-11-22T04:55:29;1.40;99.90
23251;DHT22;11794;49.730;10.088;2023-11-22T04:57:55;1.40;99.90
23251;DHT22;11794;49.730;10.088;2023-11-22T05:00:23;1.30;99.90
23251;DHT22;11794;49.730;10.088;2023-11-22T05:02:49;1.30;99.90
23251;DHT22;11794;49.730;10.088;2023-11-22T05:05:14;1.20;99.90
23251;DHT22;11794;49.730;10.088;2023-11-22T05:07:40;1.20;99.90
23251;DHT22;11794;49.730;10.088;2023-11-22T05:10:06;1.20;99.90
23251;DHT22;11794;49.730;10.088;2023-11-22T05:12:34;1.30;99.90
23251;DHT22;11794;49.730;10.088;2023-11-22T05:15:03;1.20;99.90
23251;DHT22;11794;49.730;10.088;2023-11-22T05:17:29;1.20;99.90
23251;DHT22;11794;49.730;10.088;2023-11-22T05:19:55;1.20;99.90
23251;DHT22;11794;49.730;10.088;2023-11-22T05:22:20;1.20;99.90
23251;DHT22;11794;49.730;10.088;2023-11-22T05:24:46;1.20;99.90
23251;DHT22;11794;49.730;10.088;2023-11-22T05:27:11;1.20;99.90
23251;DHT22;11794;49.730;10.088;2023-11-22T05:29:37;1.20;99.90
23251;DHT22;11794;49.730;10.088;2023-11-22T05:32:04;1.20;99.90
23251;DHT22;11794;49.730;10.088;2023-11-22T05:34:29;1.20;99.90
23251;DHT22;11794;49.730;10.088;2023-11-22T05:36:55;1.20;99.90
23251;DHT22;11794;49.730;10.088;2023-11-22T05:39:20;1.20;99.90
23251;DHT22;11794;49.730;10.088;2023-11-22T05:41:48;1.20;99.90
23251;DHT22;11794;49.730;10.088;2023-11-22T05:44:14;1.20;99.90
23251;DHT22;11794;49.730;10.088;2023-11-22T05:46:39;1.20;99.90
23251;DHT22;11794;49.730;10.088;2023-11-22T05:49:05;1.20;99.90
23251;DHT22;11794;49.730;10.088;2023-11-22T05:51:31;1.20;99.90
23251;DHT22;11794;49.730;10.088;2023-11-22T05:53:56;1.20;99.90
23251;DHT22;11794;49.730;10.088;2023-11-22T05:56:22;1.20;99.90
23251;DHT22;11794;49.730;10.088;2023-11-22T05:58:47;1.10;99.90
23251;DHT22;11794;49.730;10.088;2023-11-22T06:01:13;1.20;99.90
23251;DHT22;11794;49.730;10.088;2023-11-22T06:03:39;1.20;99.90
23251;DHT22;11794;49.730;10.088;2023-11-22T06:06:05;1.20;99.90
23251;DHT22;11794;49.730;10.088;2023-11-22T06:08:30;1.20;99.90
23251;DHT22;11794;49.730;10.088;2023-11-22T06:10:56;1.20;99.90
23251;DHT22;11794;49.730;10.088;2023-11-22T06:13:23;1.20;99.90
23251;DHT22;11794;49.730;10.088;2023-11-22T06:15:49;1.20;99.90
23251;DHT22;11794;49.730;10.088;2023-11-22T06:18:15;1.20;99.90
23251;DHT22;11794;49.730;10.088;2023-11-22T06:20:41;1.20;99.90
23251;DHT22;11794;49.730;10.088;2023-11-22T06:23:08;1.20;99.90
23251;DHT22;11794;49.730;10.088;2023-11-22T06:25:34;1.20;99.90
23251;DHT22;11794;49.730;10.088;2023-11-22T06:28:01;1.20;99.90
23251;DHT22;11794;49.730;10.088;2023-11-22T06:30:27;1.20;99.90
23251;DHT22;11794;49.730;10.088;2023-11-22T06:32:52;1.20;99.90
23251;DHT22;11794;49.730;10.088;2023-11-22T06:35:19;1.20;99.90
23251;DHT22;11794;49.730;10.088;2023-11-22T06:37:45;1.20;99.90
23251;DHT22;11794;49.730;10.088;2023-11-22T06:40:11;1.20;99.90
23251;DHT22;11794;49.730;10.088;2023-11-22T06:42:40;1.20;99.90
23251;DHT22;11794;49.730;10.088;2023-11-22T06:45:07;1.20;99.90
23251;DHT22;11794;49.730;10.088;2023-11-22T06:47:35;1.20;99.90
23251;DHT22;11794;49.730;10.088;2023-11-22T06:50:02;1.10;99.90
23251;DHT22;11794;49.730;10.088;2023-11-22T06:52:27;1.20;99.90
23251;DHT22;11794;49.730;10.088;2023-11-22T06:54:53;1.20;99.90
23251;DHT22;11794;49.730;10.088;2023-11-22T06:57:18;1.20;99.90
23251;DHT22;11794;49.730;10.088;2023-11-22T06:59:44;1.10;99.90
23251;DHT22;11794;49.730;10.088;2023-11-22T07:02:09;1.10;99.90
23251;DHT22;11794;49.730;10.088;2023-11-22T07:04:35;1.20;99.90
23251;DHT22;11794;49.730;10.088;2023-11-22T07:07:00;1.20;99.90
23251;DHT22;11794;49.730;10.088;2023-11-22T07:09:27;1.20;99.90
23251;DHT22;11794;49.730;10.088;2023-11-22T07:11:53;1.30;99.90
23251;DHT22;11794;49.730;10.088;2023-11-22T07:14:18;1.30;99.90
23251;DHT22;11794;49.730;10.088;2023-11-22T07:16:44;1.30;99.90
23251;DHT22;11794;49.730;10.088;2023-11-22T07:19:11;1.20;99.90
23251;DHT22;11794;49.730;10.088;2023-11-22T07:21:37;1.20;99.90
23251;DHT22;11794;49.730;10.088;2023-11-22T07:24:04;1.20;99.90
23251;DHT22;11794;49.730;10.088;2023-11-22T07:26:32;1.20;99.90
23251;DHT22;11794;49.730;10.088;2023-11-22T07:28:58;1.20;99.90
23251;DHT22;11794;49.730;10.088;2023-11-22T07:31:24;1.20;99.90
23251;DHT22;11794;49.730;10.088;2023-11-22T07:33:50;1.10;99.90
23251;DHT22;11794;49.730;10.088;2023-11-22T07:36:16;1.20;99.90
23251;DHT22;11794;49.730;10.088;2023-11-22T07:38:42;1.20;99.90
23251;DHT22;11794;49.730;10.088;2023-11-22T07:41:11;1.20;99.90
23251;DHT22;11794;49.730;10.088;2023-11-22T07:43:36;1.20;99.90
23251;DHT22;11794;49.730;10.088;2023-11-22T07:46:06;1.20;99.90
23251;DHT22;11794;49.730;10.088;2023-11-22T07:48:38;1.20;99.90
23251;DHT22;11794;49.730;10.088;2023-11-22T07:51:03;1.20;99.90
23251;DHT22;11794;49.730;10.088;2023-11-22T07:53:30;1.20;99.90
23251;DHT22;11794;49.730;10.088;2023-11-22T07:55:59;1.10;99.90
23251;DHT22;11794;49.730;10.088;2023-11-22T07:58:25;1.20;99.90
23251;DHT22;11794;49.730;10.088;2023-11-22T08:00:51;1.20;99.90
23251;DHT22;11794;49.730;10.088;2023-11-22T08:03:17;1.20;99.90
23251;DHT22;11794;49.730;10.088;2023-11-22T08:05:47;1.20;99.90
23251;DHT22;11794;49.730;10.088;2023-11-22T08:08:13;1.20;99.90
23251;DHT22;11794;49.730;10.088;2023-11-22T08:10:39;1.20;99.90
23251;DHT22;11794;49.730;10.088;2023-11-22T08:13:05;1.20;99.90
23251;DHT22;11794;49.730;10.088;2023-11-22T08:15:31;1.30;99.90
23251;DHT22;11794;49.730;10.088;2023-11-22T08:17:57;1.30;99.90
23251;DHT22;11794;49.730;10.088;2023-11-22T08:20:24;1.30;99.90
23251;DHT22;11794;49.730;10.088;2023-11-22T08:22:50;1.30;99.90
23251;DHT22;11794;49.730;10.088;2023-11-22T08:25:16;1.30;99.90
23251;DHT22;11794;49.730;10.088;2023-11-22T08:27:42;1.30;99.90
23251;DHT22;11794;49.730;10.088;2023-11-22T08:30:09;1.40;99.90
23251;DHT22;11794;49.730;10.088;2023-11-22T08:32:39;1.40;99.90
23251;DHT22;11794;49.730;10.088;2023-11-22T08:35:07;1.60;99.90
23251;DHT22;11794;49.730;10.088;2023-11-22T08:37:33;1.50;99.90
23251;DHT22;11794;49.730;10.088;2023-11-22T08:40:01;1.40;99.90
23251;DHT22;11794;49.730;10.088;2023-11-22T08:42:26;1.40;99.90
23251;DHT22;11794;49.730;10.088;2023-11-22T08:44:52;1.40;99.90
23251;DHT22;11794;49.730;10.088;2023-11-22T08:47:17;1.40;99.90
23251;DHT22;11794;49.730;10.088;2023-11-22T08:49:43;1.50;99.90
23251;DHT22;11794;49.730;10.088;2023-11-22T08:52:09;1.50;99.90
23251;DHT22;11794;49.730;10.088;2023-11-22T08:54:34;1.40;99.90
23251;DHT22;11794;49.730;10.088;2023-11-22T08:57:00;1.50;99.90
23251;DHT22;11794;49.730;10.088;2023-11-22T08:59:25;1.50;99.90
23251;DHT22;11794;49.730;10.088;2023-11-22T09:01:51;1.50;99.90
23251;DHT22;11794;49.730;10.088;2023-11-22T09:04:17;1.50;99.90
23251;DHT22;11794;49.730;10.088;2023-11-22T09:06:44;1.50;99.90
23251;DHT22;11794;49.730;10.088;2023-11-22T09:09:09;1.50;99.90
23251;DHT22;11794;49.730;10.088;2023-11-22T09:11:40;1.60;99.90
23251;DHT22;11794;49.730;10.088;2023-11-22T09:14:06;1.60;99.90
23251;DHT22;11794;49.730;10.088;2023-11-22T09:16:36;1.60;99.90
23251;DHT22;11794;49.730;10.088;2023-11-22T09:19:02;1.70;99.90
23251;DHT22;11794;49.730;10.088;2023-11-22T09:21:28;1.80;99.90
23251;DHT22;11794;49.730;10.088;2023-11-22T09:23:54;2.00;99.90
23251;DHT22;11794;49.730;10.088;2023-11-22T09:26:20;2.00;99.90
23251;DHT22;11794;49.730;10.088;2023-11-22T09:28:45;2.20;99.90
23251;DHT22;11794;49.730;10.088;2023-11-22T09:31:11;2.40;99.90
23251;DHT22;11794;49.730;10.088;2023-11-22T09:33:43;2.90;99.90
23251;DHT22;11794;49.730;10.088;2023-11-22T09:36:09;3.10;99.90
23251;DHT22;11794;49.730;10.088;2023-11-22T09:38:34;3.30;99.90
23251;DHT22;11794;49.730;10.088;2023-11-22T09:41:00;3.30;99.90
23251;DHT22;11794;49.730;10.088;2023-11-22T09:43:28;3.40;99.90
23251;DHT22;11794;49.730;10.088;2023-11-22T09:45:54;3.80;99.90
23251;DHT22;11794;49.730;10.088;2023-11-22T09:48:21;4.30;99.90
23251;DHT22;11794;49.730;10.088;2023-11-22T09:53:33;5.50;99.90
23251;DHT22;11794;49.730;10.088;2023-11-22T09:56:01;4.40;99.90
23251;DHT22;11794;49.730;10.088;2023-11-22T09:58:33;3.60;99.90
23251;DHT22;11794;49.730;10.088;2023-11-22T10:01:00;3.00;99.90
23251;DHT22;11794;49.730;10.088;2023-11-22T10:03:27;2.80;99.90
23251;DHT22;11794;49.730;10.088;2023-11-22T10:05:56;2.70;99.90
23251;DHT22;11794;49.730;10.088;2023-11-22T10:08:25;2.60;99.90
23251;DHT22;11794;49.730;10.088;2023-11-22T10:10:50;2.70;99.90
23251;DHT22;11794;49.730;10.088;2023-11-22T10:13:17;2.70;99.90
23251;DHT22;11794;49.730;10.088;2023-11-22T10:15:54;2.80;99.90
23251;DHT22;11794;49.730;10.088;2023-11-22T10:18:20;2.80;99.90
23251;DHT22;11794;49.730;10.088;2023-11-22T10:20:48;2.80;99.90
23251;DHT22;11794;49.730;10.088;2023-11-22T10:23:18;2.80;99.90
23251;DHT22;11794;49.730;10.088;2023-11-22T10:25:49;2.80;99.90
23251;DHT22;11794;49.730;10.088;2023-11-22T10:28:18;2.90;99.90
23251;DHT22;11794;49.730;10.088;2023-11-22T10:30:46;3.00;99.90
23251;DHT22;11794;49.730;10.088;2023-11-22T10:33:12;3.20;99.90
23251;DHT22;11794;49.730;10.088;2023-11-22T10:35:45;3.60;99.90
23251;DHT22;11794;49.730;10.088;2023-11-22T10:38:14;4.20;99.90
23251;DHT22;11794;49.730;10.088;2023-11-22T10:40:40;5.40;99.90
23251;DHT22;11794;49.730;10.088;2023-11-22T10:43:07;6.80;99.90
23251;DHT22;11794;49.730;10.088;2023-11-22T10:45:35;7.30;99.90
23251;DHT22;11794;49.730;10.088;2023-11-22T10:48:03;7.10;99.90
23251;DHT22;11794;49.730;10.088;2023-11-22T10:50:28;6.40;99.90
23251;DHT22;11794;49.730;10.088;2023-11-22T10:52:57;5.70;99.90
23251;DHT22;11794;49.730;10.088;2023-11-22T10:55:26;5.10;99.90
23251;DHT22;11794;49.730;10.088;2023-11-22T10:57:55;4.80;99.90
23251;DHT22;11794;49.730;10.088;2023-11-22T11:00:22;4.70;99.90
23251;DHT22;11794;49.730;10.088;2023-11-22T11:02:54;4.40;99.90
23251;DHT22;11794;49.730;10.088;2023-11-22T11:05:27;4.10;99.90
23251;DHT22;11794;49.730;10.088;2023-11-22T11:08:12;4.00;99.90
23251;DHT22;11794;49.730;10.088;2023-11-22T11:10:43;4.50;99.90
23251;DHT22;11794;49.730;10.088;2023-11-22T11:13:10;5.30;99.90
23251;DHT22;11794;49.730;10.088;2023-11-22T11:15:36;5.30;99.90
23251;DHT22;11794;49.730;10.088;2023-11-22T11:18:04;5.40;99.90
23251;DHT22;11794;49.730;10.088;2023-11-22T11:20:51;5.50;99.90
23251;DHT22;11794;49.730;10.088;2023-11-22T11:23:20;5.50;99.90
23251;DHT22;11794;49.730;10.088;2023-11-22T11:25:49;5.50;99.90
23251;DHT22;11794;49.730;10.088;2023-11-22T11:28:14;6.50;99.90
23251;DHT22;11794;49.730;10.088;2023-11-22T11:30:44;8.30;99.90
23251;DHT22;11794;49.730;10.088;2023-11-22T11:33:12;9.90;99.90
23251;DHT22;11794;49.730;10.088;2023-11-22T11:35:48;9.80;99.90
23251;DHT22;11794;49.730;10.088;2023-11-22T11:38:15;8.20;99.90
23251;DHT22;11794;49.730;10.088;2023-11-22T11:40:42;7.00;99.90
23251;DHT22;11794;49.730;10.088;2023-11-22T11:43:10;6.40;99.90
23251;DHT22;11794;49.730;10.088;2023-11-22T11:45:40;5.70;99.90
23251;DHT22;11794;49.730;10.088;2023-11-22T11:48:11;5.10;99.90
23251;DHT22;11794;49.730;10.088;2023-11-22T11:50:37;4.80;99.90
23251;DHT22;11794;49.730;10.088;2023-11-22T11:53:02;4.60;99.90
23251;DHT22;11794;49.730;10.088;2023-11-22T11:55:28;4.50;99.90
23251;DHT22;11794;49.730;10.088;2023-11-22T11:57:54;4.40;99.90
23251;DHT22;11794;49.730;10.088;2023-11-22T12:00:20;4.40;99.90
23251;DHT22;11794;49.730;10.088;2023-11-22T12:02:49;4.40;99.90
23251;DHT22;11794;49.730;10.088;2023-11-22T12:05:14;4.40;99.90
23251;DHT22;11794;49.730;10.088;2023-11-22T12:07:40;4.50;99.90
23251;DHT22;11794;49.730;10.088;2023-11-22T12:10:06;4.40;99.90
23251;DHT22;11794;49.730;10.088;2023-11-22T12:12:32;4.10;99.90
23251;DHT22;11794;49.730;10.088;2023-11-22T12:14:58;4.10;99.90
23251;DHT22;11794;49.730;10.088;2023-11-22T12:17:26;4.00;99.90
23251;DHT22;11794;49.730;10.088;2023-11-22T12:19:52;4.10;99.90
23251;DHT22;11794;49.730;10.088;2023-11-22T12:22:18;4.10;99.90
23251;DHT22;11794;49.730;10.088;2023-11-22T12:24:45;4.00;99.90
23251;DHT22;11794;49.730;10.088;2023-11-22T12:27:10;3.90;99.90
23251;DHT22;11794;49.730;10.088;2023-11-22T12:29:36;3.80;99.90
23251;DHT22;11794;49.730;10.088;2023-11-22T12:32:03;3.80;99.90
23251;DHT22;11794;49.730;10.088;2023-11-22T12:34:28;3.80;99.90
23251;DHT22;11794;49.730;10.088;2023-11-22T12:36:56;3.90;99.90
23251;DHT22;11794;49.730;10.088;2023-11-22T12:39:21;3.90;99.90
23251;DHT22;11794;49.730;10.088;2023-11-22T12:41:50;3.80;99.90
23251;DHT22;11794;49.730;10.088;2023-11-22T12:44:19;3.80;99.90
23251;DHT22;11794;49.730;10.088;2023-11-22T12:46:54;3.80;99.90
23251;DHT22;11794;49.730;10.088;2023-11-22T12:49:25;3.80;99.90
23251;DHT22;11794;49.730;10.088;2023-11-22T12:51:57;4.00;99.90
23251;DHT22;11794;49.730;10.088;2023-11-22T12:54:23;4.10;99.90
23251;DHT22;11794;49.730;10.088;2023-11-22T12:56:49;4.10;99.90
23251;DHT22;11794;49.730;10.088;2023-11-22T12:59:16;4.20;99.90
23251;DHT22;11794;49.730;10.088;2023-11-22T13:01:42;4.40;99.90
23251;DHT22;11794;49.730;10.088;2023-11-22T13:04:08;4.30;99.90
23251;DHT22;11794;49.730;10.088;2023-11-22T13:06:33;4.10;99.90
23251;DHT22;11794;49.730;10.088;2023-11-22T13:08:59;4.00;99.90
23251;DHT22;11794;49.730;10.088;2023-11-22T13:11:24;3.90;99.90
23251;DHT22;11794;49.730;10.088;2023-11-22T13:13:51;3.90;99.90
23251;DHT22;11794;49.730;10.088;2023-11-22T13:16:16;4.00;99.90
23251;DHT22;11794;49.730;10.088;2023-11-22T13:18:42;4.10;99.90
23251;DHT22;11794;49.730;10.088;2023-11-22T13:21:07;4.10;99.90
23251;DHT22;11794;49.730;10.088;2023-11-22T13:23:33;4.20;99.90
23251;DHT22;11794;49.730;10.088;2023-11-22T13:25:58;4.20;99.90
23251;DHT22;11794;49.730;10.088;2023-11-22T13:28:24;4.10;99.90
23251;DHT22;11794;49.730;10.088;2023-11-22T13:30:51;4.00;99.90
23251;DHT22;11794;49.730;10.088;2023-11-22T13:33:16;3.90;99.90
23251;DHT22;11794;49.730;10.088;2023-11-22T13:35:42;3.90;99.90
23251;DHT22;11794;49.730;10.088;2023-11-22T13:38:09;4.00;99.90
23251;DHT22;11794;49.730;10.088;2023-11-22T13:40:38;4.10;99.90
23251;DHT22;11794;49.730;10.088;2023-11-22T13:43:11;4.10;99.90
23251;DHT22;11794;49.730;10.088;2023-11-22T13:45:38;4.10;99.90
23251;DHT22;11794;49.730;10.088;2023-11-22T13:48:06;4.10;99.90
23251;DHT22;11794;49.730;10.088;2023-11-22T13:50:35;4.10;99.90
23251;DHT22;11794;49.730;10.088;2023-11-22T13:53:01;4.00;99.90
23251;DHT22;11794;49.730;10.088;2023-11-22T13:55:29;3.90;99.90
23251;DHT22;11794;49.730;10.088;2023-11-22T13:57:59;3.80;99.90
23251;DHT22;11794;49.730;10.088;2023-11-22T14:00:26;3.80;99.90
23251;DHT22;11794;49.730;10.088;2023-11-22T14:02:55;3.80;99.90
23251;DHT22;11794;49.730;10.088;2023-11-22T14:05:26;3.90;99.90
23251;DHT22;11794;49.730;10.088;2023-11-22T14:07:54;4.20;99.90
23251;DHT22;11794;49.730;10.088;2023-11-22T14:10:20;4.20;99.90
23251;DHT22;11794;49.730;10.088;2023-11-22T14:12:50;4.10;99.90
23251;DHT22;11794;49.730;10.088;2023-11-22T14:15:16;3.90;99.90
23251;DHT22;11794;49.730;10.088;2023-11-22T14:17:42;3.90;99.90
23251;DHT22;11794;49.730;10.088;2023-11-22T14:20:09;3.80;99.90
23251;DHT22;11794;49.730;10.088;2023-11-22T14:22:35;3.70;99.90
23251;DHT22;11794;49.730;10.088;2023-11-22T14:25:01;3.80;99.90
23251;DHT22;11794;49.730;10.088;2023-11-22T14:27:27;3.80;99.90
23251;DHT22;11794;49.730;10.088;2023-11-22T14:29:56;3.80;99.90
23251;DHT22;11794;49.730;10.088;2023-11-22T14:32:22;3.90;99.90
23251;DHT22;11794;49.730;10.088;2023-11-22T14:34:47;3.90;99.90
23251;DHT22;11794;49.730;10.088;2023-11-22T14:37:13;4.00;99.90
23251;DHT22;11794;49.730;10.088;2023-11-22T14:39:39;4.00;99.90
23251;DHT22;11794;49.730;10.088;2023-11-22T14:42:05;3.90;99.90
23251;DHT22;11794;49.730;10.088;2023-11-22T14:44:32;3.70;99.90
23251;DHT22;11794;49.730;10.088;2023-11-22T14:46:57;3.70;99.90
23251;DHT22;11794;49.730;10.088;2023-11-22T14:49:32;3.60;99.90
23251;DHT22;11794;49.730;10.088;2023-11-22T14:51:58;3.70;99.90
23251;DHT22;11794;49.730;10.088;2023-11-22T14:54:23;3.60;99.90
23251;DHT22;11794;49.730;10.088;2023-11-22T14:56:49;3.60;99.90
23251;DHT22;11794;49.730;10.088;2023-11-22T14:59:15;3.60;99.90
23251;DHT22;11794;49.730;10.088;2023-11-22T15:01:42;3.60;99.90
23251;DHT22;11794;49.730;10.088;2023-11-22T15:04:09;3.50;99.90
23251;DHT22;11794;49.730;10.088;2023-11-22T15:06:36;3.40;99.90
23251;DHT22;11794;49.730;10.088;2023-11-22T15:09:02;3.40;99.90
23251;DHT22;11794;49.730;10.088;2023-11-22T15:11:35;3.30;99.90
23251;DHT22;11794;49.730;10.088;2023-11-22T15:14:01;3.30;99.90
23251;DHT22;11794;49.730;10.088;2023-11-22T15:16:26;3.30;99.90
23251;DHT22;11794;49.730;10.088;2023-11-22T15:18:52;3.30;99.90
23251;DHT22;11794;49.730;10.088;2023-11-22T15:21:17;3.40;99.90
23251;DHT22;11794;49.730;10.088;2023-11-22T15:23:43;3.30;99.90
23251;DHT22;11794;49.730;10.088;2023-11-22T15:26:08;3.30;99.90
23251;DHT22;11794;49.730;10.088;2023-11-22T15:28:34;3.30;99.90